sensor_id;sensor_type;location;lat;lon;timestamp;P1;durP1;ratioP1;P2;durP2;ratioP2
38089;SDS011;23904;52.322;10.232;2024-03-02T00:01:06;33.03;;;19.63;;
38089;SDS011;23904;52.322;10.232;2024-03-02T00:03:32;34.03;;;18.52;;
38089;SDS011;23904;52.322;10.232;2024-03-02T00:05:58;34.70;;;18.73;;
38089;SDS011;23904;52.322;10.232;2024-03-02T00:08:24;38.58;;;20.63;;
38089;SDS011;23904;52.322;10.232;2024-03-02T00:10:50;29.40;;;17.67;;
38089;SDS011;23904;52.322;10.232;2024-03-02T00:13:18;30.73;;;18.65;;
38089;SDS011;23904;52.322;10.232;2024-03-02T00:15:48;26.42;;;16.45;;
38089;SDS011;23904;52.322;10.232;2024-03-02T00:18:19;28.98;;;17.67;;
38089;SDS011;23904;52.322;10.232;2024-03-02T00:20:51;29.60;;;16.48;;
38089;SDS011;23904;52.322;10.232;2024-03-02T00:23:22;31.27;;;17.35;;
38089;SDS011;23904;52.322;10.232;2024-03-02T00:25:49;25.17;;;15.82;;
38089;SDS011;23904;52.322;10.232;2024-03-02T00:28:32;33.60;;;16.60;;
38089;SDS011;23904;52.322;10.232;2024-03-02T00:31:06;30.23;;;16.10;;
38089;SDS011;23904;52.322;10.232;2024-03-02T00:33:46;26.88;;;15.48;;
38089;SDS011;23904;52.322;10.232;2024-03-02T00:36:16;33.75;;;17.20;;
38089;SDS011;23904;52.322;10.232;2024-03-02T00:38:48;25.40;;;16.00;;
38089;SDS011;23904;52.322;10.232;2024-03-02T00:41:16;27.58;;;17.17;;
38089;SDS011;23904;52.322;10.232;2024-03-02T00:44:02;27.83;;;17.15;;
38089;SDS011;23904;52.322;10.232;2024-03-02T00:49:04;25.75;;;16.30;;
38089;SDS011;23904;52.322;10.232;2024-03-02T00:51:47;27.15;;;15.65;;
38089;SDS011;23904;52.322;10.232;2024-03-02T00:54:15;31.13;;;17.33;;
38089;SDS011;23904;52.322;10.232;2024-03-02T00:56:44;30.75;;;17.35;;
38089;SDS011;23904;52.322;10.232;2024-03-02T00:59:10;27.60;;;16.30;;
38089;SDS011;23904;52.322;10.232;2024-03-02T01:01:36;30.52;;;17.23;;
38089;SDS011;23904;52.322;10.232;2024-03-02T01:04:01;28.02;;;17.27;;
38089;SDS011;23904;52.322;10.232;2024-03-02T01:06:27;30.30;;;17.15;;
38089;SDS011;23904;52.322;10.232;2024-03-02T01:08:52;28.42;;;16.65;;
38089;SDS011;23904;52.322;10.232;2024-03-02T01:11:18;29.00;;;16.35;;
38089;SDS011;23904;52.322;10.232;2024-03-02T01:13:46;29.45;;;18.88;;
38089;SDS011;23904;52.322;10.232;2024-03-02T01:16:11;27.67;;;16.63;;
38089;SDS011;23904;52.322;10.232;2024-03-02T01:18:37;28.90;;;18.02;;
38089;SDS011;23904;52.322;10.232;2024-03-02T01:21:02;28.98;;;17.73;;
38089;SDS011;23904;52.322;10.232;2024-03-02T01:23:28;26.90;;;16.90;;
38089;SDS011;23904;52.322;10.232;2024-03-02T01:25:54;29.65;;;16.25;;
38089;SDS011;23904;52.322;10.232;2024-03-02T01:28:20;26.75;;;17.55;;
38089;SDS011;23904;52.322;10.232;2024-03-02T01:30:45;26.77;;;16.75;;
38089;SDS011;23904;52.322;10.232;2024-03-02T01:33:11;27.83;;;16.83;;
38089;SDS011;23904;52.322;10.232;2024-03-02T01:35:37;32.17;;;17.55;;
38089;SDS011;23904;52.322;10.232;2024-03-02T01:38:03;23.52;;;15.35;;
38089;SDS011;23904;52.322;10.232;2024-03-02T01:40:33;27.63;;;16.92;;
38089;SDS011;23904;52.322;10.232;2024-03-02T01:42:59;27.27;;;16.05;;
38089;SDS011;23904;52.322;10.232;2024-03-02T01:45:25;26.45;;;17.40;;
38089;SDS011;23904;52.322;10.232;2024-03-02T01:47:51;26.95;;;16.23;;
38089;SDS011;23904;52.322;10.232;2024-03-02T01:50:24;24.95;;;16.52;;
38089;SDS011;23904;52.322;10.232;2024-03-02T01:52:57;26.80;;;16.02;;
38089;SDS011;23904;52.322;10.232;2024-03-02T01:55:24;23.15;;;16.13;;
38089;SDS011;23904;52.322;10.232;2024-03-02T01:57:50;29.70;;;16.42;;
38089;SDS011;23904;52.322;10.232;2024-03-02T02:00:17;25.63;;;16.65;;
38089;SDS011;23904;52.322;10.232;2024-03-02T02:02:47;26.33;;;16.40;;
38089;SDS011;23904;52.322;10.232;2024-03-02T02:05:13;24.52;;;16.80;;
38089;SDS011;23904;52.322;10.232;2024-03-02T02:07:40;24.45;;;15.65;;
38089;SDS011;23904;52.322;10.232;2024-03-02T02:10:07;28.35;;;16.73;;
38089;SDS011;23904;52.322;10.232;2024-03-02T02:12:33;27.58;;;16.13;;
38089;SDS011;23904;52.322;10.232;2024-03-02T02:14:59;26.75;;;18.05;;
38089;SDS011;23904;52.322;10.232;2024-03-02T02:17:24;31.10;;;18.40;;
38089;SDS011;23904;52.322;10.232;2024-03-02T02:19:50;25.90;;;17.15;;
38089;SDS011;23904;52.322;10.232;2024-03-02T02:22:15;26.77;;;17.13;;
38089;SDS011;23904;52.322;10.232;2024-03-02T02:24:41;27.13;;;17.15;;
38089;SDS011;23904;52.322;10.232;2024-03-02T02:27:07;28.98;;;18.15;;
38089;SDS011;23904;52.322;10.232;2024-03-02T02:29:34;31.30;;;19.80;;
38089;SDS011;23904;52.322;10.232;2024-03-02T02:32:00;30.48;;;17.35;;
38089;SDS011;23904;52.322;10.232;2024-03-02T02:34:26;31.38;;;17.88;;
38089;SDS011;23904;52.322;10.232;2024-03-02T02:36:51;27.63;;;17.77;;
38089;SDS011;23904;52.322;10.232;2024-03-02T02:39:18;31.85;;;18.77;;
38089;SDS011;23904;52.322;10.232;2024-03-02T02:41:47;32.53;;;19.90;;
38089;SDS011;23904;52.322;10.232;2024-03-02T02:44:13;33.40;;;20.30;;
38089;SDS011;23904;52.322;10.232;2024-03-02T02:46:39;32.53;;;19.73;;
38089;SDS011;23904;52.322;10.232;2024-03-02T02:49:05;33.40;;;19.83;;
38089;SDS011;23904;52.322;10.232;2024-03-02T02:51:31;37.40;;;21.08;;
38089;SDS011;23904;52.322;10.232;2024-03-02T02:53:56;32.17;;;19.02;;
38089;SDS011;23904;52.322;10.232;2024-03-02T02:56:22;34.63;;;21.67;;
38089;SDS011;23904;52.322;10.232;2024-03-02T02:58:48;30.73;;;20.83;;
38089;SDS011;23904;52.322;10.232;2024-03-02T03:01:14;33.13;;;19.70;;
38089;SDS011;23904;52.322;10.232;2024-03-02T03:03:44;35.60;;;20.08;;
38089;SDS011;23904;52.322;10.232;2024-03-02T03:06:10;32.47;;;20.05;;
38089;SDS011;23904;52.322;10.232;2024-03-02T03:08:37;36.95;;;22.45;;
38089;SDS011;23904;52.322;10.232;2024-03-02T03:11:03;32.97;;;20.55;;
38089;SDS011;23904;52.322;10.232;2024-03-02T03:13:29;32.45;;;20.48;;
38089;SDS011;23904;52.322;10.232;2024-03-02T03:15:59;38.03;;;21.50;;
38089;SDS011;23904;52.322;10.232;2024-03-02T03:18:24;34.90;;;20.38;;
38089;SDS011;23904;52.322;10.232;2024-03-02T03:20:50;34.35;;;21.60;;
38089;SDS011;23904;52.322;10.232;2024-03-02T03:23:15;36.58;;;22.17;;
38089;SDS011;23904;52.322;10.232;2024-03-02T03:25:42;36.47;;;21.48;;
38089;SDS011;23904;52.322;10.232;2024-03-02T03:28:08;34.15;;;20.77;;
38089;SDS011;23904;52.322;10.232;2024-03-02T03:30:37;37.55;;;21.48;;
38089;SDS011;23904;52.322;10.232;2024-03-02T03:33:03;33.90;;;19.85;;
38089;SDS011;23904;52.322;10.232;2024-03-02T03:35:31;31.35;;;19.92;;
38089;SDS011;23904;52.322;10.232;2024-03-02T03:37:57;30.42;;;20.75;;
38089;SDS011;23904;52.322;10.232;2024-03-02T03:40:22;34.03;;;21.13;;
38089;SDS011;23904;52.322;10.232;2024-03-02T03:42:48;36.20;;;19.88;;
38089;SDS011;23904;52.322;10.232;2024-03-02T03:45:15;36.05;;;20.45;;
38089;SDS011;23904;52.322;10.232;2024-03-02T03:47:41;32.95;;;21.48;;
38089;SDS011;23904;52.322;10.232;2024-03-02T03:50:06;44.05;;;22.63;;
38089;SDS011;23904;52.322;10.232;2024-03-02T03:52:32;39.15;;;22.52;;
38089;SDS011;23904;52.322;10.232;2024-03-02T03:54:58;38.03;;;21.85;;
38089;SDS011;23904;52.322;10.232;2024-03-02T03:57:25;40.40;;;23.33;;
38089;SDS011;23904;52.322;10.232;2024-03-02T03:59:51;34.67;;;21.10;;
38089;SDS011;23904;52.322;10.232;2024-03-02T04:02:16;32.42;;;19.92;;
38089;SDS011;23904;52.322;10.232;2024-03-02T04:04:42;33.50;;;20.45;;
38089;SDS011;23904;52.322;10.232;2024-03-02T04:07:08;32.85;;;19.52;;
38089;SDS011;23904;52.322;10.232;2024-03-02T04:09:34;32.72;;;19.48;;
38089;SDS011;23904;52.322;10.232;2024-03-02T04:11:59;30.13;;;18.85;;
38089;SDS011;23904;52.322;10.232;2024-03-02T04:14:25;30.88;;;19.25;;
38089;SDS011;23904;52.322;10.232;2024-03-02T04:16:50;37.83;;;19.38;;
38089;SDS011;23904;52.322;10.232;2024-03-02T04:19:16;31.38;;;19.55;;
38089;SDS011;23904;52.322;10.232;2024-03-02T04:21:42;36.92;;;20.45;;
38089;SDS011;23904;52.322;10.232;2024-03-02T04:24:07;31.05;;;19.60;;
38089;SDS011;23904;52.322;10.232;2024-03-02T04:26:33;33.70;;;18.55;;
38089;SDS011;23904;52.322;10.232;2024-03-02T04:28:58;34.40;;;19.85;;
38089;SDS011;23904;52.322;10.232;2024-03-02T04:31:24;32.63;;;19.33;;
38089;SDS011;23904;52.322;10.232;2024-03-02T04:33:49;31.48;;;18.98;;
38089;SDS011;23904;52.322;10.232;2024-03-02T04:36:15;33.30;;;19.38;;
38089;SDS011;23904;52.322;10.232;2024-03-02T04:38:40;30.73;;;18.35;;
38089;SDS011;23904;52.322;10.232;2024-03-02T04:41:06;28.25;;;17.75;;
38089;SDS011;23904;52.322;10.232;2024-03-02T04:43:32;32.70;;;19.38;;
38089;SDS011;23904;52.322;10.232;2024-03-02T04:45:58;29.90;;;18.50;;
38089;SDS011;23904;52.322;10.232;2024-03-02T04:48:25;29.35;;;18.42;;
38089;SDS011;23904;52.322;10.232;2024-03-02T04:50:50;32.30;;;18.63;;
38089;SDS011;23904;52.322;10.232;2024-03-02T04:53:16;30.65;;;19.70;;
38089;SDS011;23904;52.322;10.232;2024-03-02T04:55:42;36.35;;;20.42;;
38089;SDS011;23904;52.322;10.232;2024-03-02T04:58:07;35.30;;;20.20;;
38089;SDS011;23904;52.322;10.232;2024-03-02T05:00:33;32.92;;;19.67;;
38089;SDS011;23904;52.322;10.232;2024-03-02T05:02:59;32.45;;;18.17;;
38089;SDS011;23904;52.322;10.232;2024-03-02T05:05:25;29.17;;;17.50;;
38089;SDS011;23904;52.322;10.232;2024-03-02T05:07:51;32.33;;;19.50;;
38089;SDS011;23904;52.322;10.232;2024-03-02T05:10:16;35.95;;;20.88;;
38089;SDS011;23904;52.322;10.232;2024-03-02T05:12:42;32.92;;;19.85;;
38089;SDS011;23904;52.322;10.232;2024-03-02T05:15:08;34.25;;;20.70;;
38089;SDS011;23904;52.322;10.232;2024-03-02T05:17:38;38.78;;;19.85;;
38089;SDS011;23904;52.322;10.232;2024-03-02T05:20:05;50.80;;;24.70;;
38089;SDS011;23904;52.322;10.232;2024-03-02T05:22:35;37.85;;;20.33;;
38089;SDS011;23904;52.322;10.232;2024-03-02T05:25:02;35.38;;;19.80;;
38089;SDS011;23904;52.322;10.232;2024-03-02T05:27:29;33.95;;;17.85;;
38089;SDS011;23904;52.322;10.232;2024-03-02T05:29:55;31.88;;;17.95;;
38089;SDS011;23904;52.322;10.232;2024-03-02T05:32:21;31.98;;;18.50;;
38089;SDS011;23904;52.322;10.232;2024-03-02T05:34:46;33.40;;;19.90;;
38089;SDS011;23904;52.322;10.232;2024-03-02T05:37:12;40.50;;;21.60;;
38089;SDS011;23904;52.322;10.232;2024-03-02T05:39:37;41.80;;;22.92;;
38089;SDS011;23904;52.322;10.232;2024-03-02T05:42:03;36.85;;;21.30;;
38089;SDS011;23904;52.322;10.232;2024-03-02T05:44:29;45.42;;;23.95;;
38089;SDS011;23904;52.322;10.232;2024-03-02T05:46:55;38.88;;;22.60;;
38089;SDS011;23904;52.322;10.232;2024-03-02T05:49:21;36.72;;;19.48;;
38089;SDS011;23904;52.322;10.232;2024-03-02T05:51:46;32.70;;;19.17;;
38089;SDS011;23904;52.322;10.232;2024-03-02T05:54:12;31.80;;;18.65;;
38089;SDS011;23904;52.322;10.232;2024-03-02T05:56:38;32.50;;;19.27;;
38089;SDS011;23904;52.322;10.232;2024-03-02T05:59:04;34.20;;;18.95;;
38089;SDS011;23904;52.322;10.232;2024-03-02T06:01:39;33.75;;;18.77;;
38089;SDS011;23904;52.322;10.232;2024-03-02T06:04:05;35.67;;;20.10;;
38089;SDS011;23904;52.322;10.232;2024-03-02T06:06:31;29.20;;;18.75;;
38089;SDS011;23904;52.322;10.232;2024-03-02T06:08:59;33.03;;;18.90;;
38089;SDS011;23904;52.322;10.232;2024-03-02T06:11:32;34.25;;;19.95;;
38089;SDS011;23904;52.322;10.232;2024-03-02T06:14:02;36.67;;;20.38;;
38089;SDS011;23904;52.322;10.232;2024-03-02T06:16:28;41.63;;;22.83;;
38089;SDS011;23904;52.322;10.232;2024-03-02T06:18:54;35.42;;;21.88;;
38089;SDS011;23904;52.322;10.232;2024-03-02T06:21:22;40.08;;;21.15;;
38089;SDS011;23904;52.322;10.232;2024-03-02T06:23:48;36.70;;;22.17;;
38089;SDS011;23904;52.322;10.232;2024-03-02T06:26:14;33.72;;;20.85;;
38089;SDS011;23904;52.322;10.232;2024-03-02T06:28:40;34.70;;;20.73;;
38089;SDS011;23904;52.322;10.232;2024-03-02T06:31:06;36.08;;;21.45;;
38089;SDS011;23904;52.322;10.232;2024-03-02T06:33:31;39.47;;;21.88;;
38089;SDS011;23904;52.322;10.232;2024-03-02T06:35:57;35.67;;;20.75;;
38089;SDS011;23904;52.322;10.232;2024-03-02T06:38:22;39.83;;;23.48;;
38089;SDS011;23904;52.322;10.232;2024-03-02T06:40:48;42.65;;;24.52;;
38089;SDS011;23904;52.322;10.232;2024-03-02T06:43:13;46.97;;;25.40;;
38089;SDS011;23904;52.322;10.232;2024-03-02T06:45:39;38.30;;;21.52;;
38089;SDS011;23904;52.322;10.232;2024-03-02T06:48:04;40.63;;;21.67;;
38089;SDS011;23904;52.322;10.232;2024-03-02T06:50:31;38.95;;;22.35;;
38089;SDS011;23904;52.322;10.232;2024-03-02T06:52:56;40.28;;;22.25;;
38089;SDS011;23904;52.322;10.232;2024-03-02T06:55:22;37.40;;;22.55;;
38089;SDS011;23904;52.322;10.232;2024-03-02T06:57:49;40.28;;;23.42;;
38089;SDS011;23904;52.322;10.232;2024-03-02T07:00:15;41.10;;;22.23;;
38089;SDS011;23904;52.322;10.232;2024-03-02T07:02:42;42.20;;;22.45;;
38089;SDS011;23904;52.322;10.232;2024-03-02T07:05:09;38.72;;;22.15;;
38089;SDS011;23904;52.322;10.232;2024-03-02T07:07:36;43.63;;;21.60;;
38089;SDS011;23904;52.322;10.232;2024-03-02T07:10:02;47.47;;;26.02;;
38089;SDS011;23904;52.322;10.232;2024-03-02T07:12:29;51.78;;;26.85;;
38089;SDS011;23904;52.322;10.232;2024-03-02T07:14:54;48.08;;;26.77;;
38089;SDS011;23904;52.322;10.232;2024-03-02T07:17:36;42.33;;;24.13;;
38089;SDS011;23904;52.322;10.232;2024-03-02T07:20:02;42.83;;;24.15;;
38089;SDS011;23904;52.322;10.232;2024-03-02T07:22:29;42.58;;;22.30;;
38089;SDS011;23904;52.322;10.232;2024-03-02T07:24:54;43.35;;;23.00;;
38089;SDS011;23904;52.322;10.232;2024-03-02T07:27:20;41.00;;;22.10;;
38089;SDS011;23904;52.322;10.232;2024-03-02T07:29:46;41.35;;;23.23;;
38089;SDS011;23904;52.322;10.232;2024-03-02T07:32:11;42.20;;;23.67;;
38089;SDS011;23904;52.322;10.232;2024-03-02T07:34:37;37.35;;;22.13;;
38089;SDS011;23904;52.322;10.232;2024-03-02T07:37:03;35.90;;;22.10;;
38089;SDS011;23904;52.322;10.232;2024-03-02T07:39:29;40.35;;;22.27;;
38089;SDS011;23904;52.322;10.232;2024-03-02T07:41:55;32.17;;;19.63;;
38089;SDS011;23904;52.322;10.232;2024-03-02T07:44:21;37.88;;;21.83;;
38089;SDS011;23904;52.322;10.232;2024-03-02T07:46:46;34.83;;;21.85;;
38089;SDS011;23904;52.322;10.232;2024-03-02T07:49:15;37.67;;;21.63;;
38089;SDS011;23904;52.322;10.232;2024-03-02T07:51:41;39.75;;;21.90;;
38089;SDS011;23904;52.322;10.232;2024-03-02T07:54:07;35.30;;;21.25;;
38089;SDS011;23904;52.322;10.232;2024-03-02T07:56:33;37.78;;;21.25;;
38089;SDS011;23904;52.322;10.232;2024-03-02T07:58:59;32.33;;;19.48;;
38089;SDS011;23904;52.322;10.232;2024-03-02T08:01:27;31.38;;;18.42;;
38089;SDS011;23904;52.322;10.232;2024-03-02T08:03:55;31.92;;;19.42;;
38089;SDS011;23904;52.322;10.232;2024-03-02T08:06:23;28.25;;;17.67;;
38089;SDS011;23904;52.322;10.232;2024-03-02T08:08:52;33.60;;;18.83;;
38089;SDS011;23904;52.322;10.232;2024-03-02T08:11:22;32.70;;;19.52;;
38089;SDS011;23904;52.322;10.232;2024-03-02T08:13:48;35.25;;;20.48;;
38089;SDS011;23904;52.322;10.232;2024-03-02T08:16:17;38.38;;;20.17;;
38089;SDS011;23904;52.322;10.232;2024-03-02T08:18:46;35.75;;;21.25;;
38089;SDS011;23904;52.322;10.232;2024-03-02T08:21:12;33.83;;;20.45;;
38089;SDS011;23904;52.322;10.232;2024-03-02T08:23:38;31.30;;;19.58;;
38089;SDS011;23904;52.322;10.232;2024-03-02T08:26:05;32.80;;;19.58;;
38089;SDS011;23904;52.322;10.232;2024-03-02T08:28:32;35.60;;;18.83;;
38089;SDS011;23904;52.322;10.232;2024-03-02T08:30:58;33.25;;;18.75;;
38089;SDS011;23904;52.322;10.232;2024-03-02T08:33:23;36.05;;;19.15;;
38089;SDS011;23904;52.322;10.232;2024-03-02T08:35:49;27.67;;;17.02;;
38089;SDS011;23904;52.322;10.232;2024-03-02T08:38:15;35.45;;;20.38;;
38089;SDS011;23904;52.322;10.232;2024-03-02T08:40:41;33.20;;;17.92;;
38089;SDS011;23904;52.322;10.232;2024-03-02T08:43:06;27.60;;;16.15;;
38089;SDS011;23904;52.322;10.232;2024-03-02T08:45:32;31.38;;;18.77;;
38089;SDS011;23904;52.322;10.232;2024-03-02T08:47:59;31.27;;;18.55;;
38089;SDS011;23904;52.322;10.232;2024-03-02T08:50:25;32.30;;;18.23;;
38089;SDS011;23904;52.322;10.232;2024-03-02T08:52:51;31.38;;;19.13;;
38089;SDS011;23904;52.322;10.232;2024-03-02T08:55:16;33.00;;;19.25;;
38089;SDS011;23904;52.322;10.232;2024-03-02T08:57:42;35.95;;;19.70;;
38089;SDS011;23904;52.322;10.232;2024-03-02T09:00:08;30.85;;;17.92;;
38089;SDS011;23904;52.322;10.232;2024-03-02T09:02:34;30.70;;;17.10;;
38089;SDS011;23904;52.322;10.232;2024-03-02T09:05:00;27.45;;;17.27;;
38089;SDS011;23904;52.322;10.232;2024-03-02T09:07:26;29.55;;;16.67;;
38089;SDS011;23904;52.322;10.232;2024-03-02T09:09:51;30.30;;;18.27;;
38089;SDS011;23904;52.322;10.232;2024-03-02T09:12:17;30.40;;;17.35;;
38089;SDS011;23904;52.322;10.232;2024-03-02T09:14:44;29.17;;;16.08;;
38089;SDS011;23904;52.322;10.232;2024-03-02T09:17:10;36.33;;;16.48;;
38089;SDS011;23904;52.322;10.232;2024-03-02T09:19:36;30.30;;;17.17;;
38089;SDS011;23904;52.322;10.232;2024-03-02T09:22:03;27.95;;;17.60;;
38089;SDS011;23904;52.322;10.232;2024-03-02T09:24:30;29.27;;;18.65;;
38089;SDS011;23904;52.322;10.232;2024-03-02T09:26:58;27.85;;;16.85;;
38089;SDS011;23904;52.322;10.232;2024-03-02T09:29:24;29.63;;;17.67;;
38089;SDS011;23904;52.322;10.232;2024-03-02T09:31:49;26.52;;;17.25;;
38089;SDS011;23904;52.322;10.232;2024-03-02T09:34:15;26.73;;;16.33;;
38089;SDS011;23904;52.322;10.232;2024-03-02T09:36:42;26.08;;;16.52;;
38089;SDS011;23904;52.322;10.232;2024-03-02T09:39:08;22.75;;;16.08;;
38089;SDS011;23904;52.322;10.232;2024-03-02T09:41:34;24.35;;;16.15;;
38089;SDS011;23904;52.322;10.232;2024-03-02T09:44:02;24.13;;;15.73;;
38089;SDS011;23904;52.322;10.232;2024-03-02T09:46:28;24.05;;;15.68;;
38089;SDS011;23904;52.322;10.232;2024-03-02T09:48:53;26.75;;;14.95;;
38089;SDS011;23904;52.322;10.232;2024-03-02T09:51:19;25.80;;;15.10;;
38089;SDS011;23904;52.322;10.232;2024-03-02T09:53:45;24.80;;;15.80;;
38089;SDS011;23904;52.322;10.232;2024-03-02T09:56:11;23.67;;;15.60;;
38089;SDS011;23904;52.322;10.232;2024-03-02T09:58:36;20.30;;;14.00;;
38089;SDS011;23904;52.322;10.232;2024-03-02T10:01:06;18.63;;;12.35;;
38089;SDS011;23904;52.322;10.232;2024-03-02T10:03:33;21.67;;;13.43;;
38089;SDS011;23904;52.322;10.232;2024-03-02T10:08:48;17.30;;;11.82;;
38089;SDS011;23904;52.322;10.232;2024-03-02T10:11:25;20.25;;;13.40;;
38089;SDS011;23904;52.322;10.232;2024-03-02T10:14:10;23.48;;;14.02;;
38089;SDS011;23904;52.322;10.232;2024-03-02T10:16:37;21.48;;;12.73;;
38089;SDS011;23904;52.322;10.232;2024-03-02T10:19:18;20.73;;;12.38;;
38089;SDS011;23904;52.322;10.232;2024-03-02T10:21:48;19.50;;;13.70;;
38089;SDS011;23904;52.322;10.232;2024-03-02T10:24:16;25.67;;;14.35;;
38089;SDS011;23904;52.322;10.232;2024-03-02T10:26:43;23.42;;;13.80;;
38089;SDS011;23904;52.322;10.232;2024-03-02T10:29:09;18.40;;;11.82;;
38089;SDS011;23904;52.322;10.232;2024-03-02T10:31:36;18.20;;;11.60;;
38089;SDS011;23904;52.322;10.232;2024-03-02T10:34:07;19.27;;;12.23;;
38089;SDS011;23904;52.322;10.232;2024-03-02T10:36:33;18.73;;;12.00;;
38089;SDS011;23904;52.322;10.232;2024-03-02T10:39:06;19.38;;;12.63;;
38089;SDS011;23904;52.322;10.232;2024-03-02T10:41:33;19.60;;;12.52;;
38089;SDS011;23904;52.322;10.232;2024-03-02T10:44:04;19.45;;;11.80;;
38089;SDS011;23904;52.322;10.232;2024-03-02T10:46:33;19.65;;;11.10;;
38089;SDS011;23904;52.322;10.232;2024-03-02T10:49:02;17.58;;;9.55;;
38089;SDS011;23904;52.322;10.232;2024-03-02T10:51:30;16.83;;;10.85;;
38089;SDS011;23904;52.322;10.232;2024-03-02T10:53:58;15.27;;;9.60;;
38089;SDS011;23904;52.322;10.232;2024-03-02T10:56:29;14.88;;;10.07;;
38089;SDS011;23904;52.322;10.232;2024-03-02T10:59:03;16.80;;;10.25;;
38089;SDS011;23904;52.322;10.232;2024-03-02T11:01:48;18.75;;;10.38;;
38089;SDS011;23904;52.322;10.232;2024-03-02T11:04:18;15.93;;;9.95;;
38089;SDS011;23904;52.322;10.232;2024-03-02T11:06:49;15.88;;;9.88;;
38089;SDS011;23904;52.322;10.232;2024-03-02T11:09:16;18.73;;;9.88;;
38089;SDS011;23904;52.322;10.232;2024-03-02T11:11:45;16.65;;;9.18;;
38089;SDS011;23904;52.322;10.232;2024-03-02T11:14:21;14.20;;;9.82;;
38089;SDS011;23904;52.322;10.232;2024-03-02T11:16:50;16.35;;;9.50;;
38089;SDS011;23904;52.322;10.232;2024-03-02T11:19:17;13.95;;;8.65;;
38089;SDS011;23904;52.322;10.232;2024-03-02T11:21:43;12.90;;;8.10;;
38089;SDS011;23904;52.322;10.232;2024-03-02T11:26:50;12.52;;;8.30;;
38089;SDS011;23904;52.322;10.232;2024-03-02T11:34:33;14.95;;;8.38;;
38089;SDS011;23904;52.322;10.232;2024-03-02T11:39:29;13.05;;;8.68;;
38089;SDS011;23904;52.322;10.232;2024-03-02T11:41:56;12.15;;;8.80;;
38089;SDS011;23904;52.322;10.232;2024-03-02T11:44:25;11.65;;;7.72;;
38089;SDS011;23904;52.322;10.232;2024-03-02T11:47:01;13.48;;;7.82;;
38089;SDS011;23904;52.322;10.232;2024-03-02T11:52:15;10.85;;;7.63;;
38089;SDS011;23904;52.322;10.232;2024-03-02T11:54:43;11.13;;;7.30;;
38089;SDS011;23904;52.322;10.232;2024-03-02T11:57:20;10.52;;;6.45;;
38089;SDS011;23904;52.322;10.232;2024-03-02T11:59:51;9.07;;;6.03;;
38089;SDS011;23904;52.322;10.232;2024-03-02T12:02:18;8.80;;;5.70;;
38089;SDS011;23904;52.322;10.232;2024-03-02T12:04:45;7.88;;;5.05;;
38089;SDS011;23904;52.322;10.232;2024-03-02T12:07:13;7.43;;;5.00;;
38089;SDS011;23904;52.322;10.232;2024-03-02T12:09:48;7.38;;;5.10;;
38089;SDS011;23904;52.322;10.232;2024-03-02T12:12:25;7.78;;;5.07;;
38089;SDS011;23904;52.322;10.232;2024-03-02T12:14:52;7.13;;;4.40;;
38089;SDS011;23904;52.322;10.232;2024-03-02T12:17:20;9.15;;;4.43;;
38089;SDS011;23904;52.322;10.232;2024-03-02T12:19:46;7.60;;;4.55;;
38089;SDS011;23904;52.322;10.232;2024-03-02T12:22:12;7.55;;;4.70;;
38089;SDS011;23904;52.322;10.232;2024-03-02T12:24:38;8.60;;;4.70;;
38089;SDS011;23904;52.322;10.232;2024-03-02T12:27:04;6.55;;;4.80;;
38089;SDS011;23904;52.322;10.232;2024-03-02T12:29:30;9.55;;;4.95;;
38089;SDS011;23904;52.322;10.232;2024-03-02T12:31:56;15.25;;;5.25;;
38089;SDS011;23904;52.322;10.232;2024-03-02T12:34:22;8.75;;;4.47;;
38089;SDS011;23904;52.322;10.232;2024-03-02T12:36:48;9.13;;;4.82;;
38089;SDS011;23904;52.322;10.232;2024-03-02T12:39:17;7.40;;;4.55;;
38089;SDS011;23904;52.322;10.232;2024-03-02T12:41:44;6.78;;;4.53;;
38089;SDS011;23904;52.322;10.232;2024-03-02T12:44:11;8.13;;;4.75;;
38089;SDS011;23904;52.322;10.232;2024-03-02T12:46:37;12.65;;;5.25;;
38089;SDS011;23904;52.322;10.232;2024-03-02T12:49:09;10.40;;;5.43;;
38089;SDS011;23904;52.322;10.232;2024-03-02T12:51:41;9.70;;;5.15;;
38089;SDS011;23904;52.322;10.232;2024-03-02T12:54:08;8.35;;;5.38;;
38089;SDS011;23904;52.322;10.232;2024-03-02T12:56:35;8.07;;;5.65;;
38089;SDS011;23904;52.322;10.232;2024-03-02T12:59:10;13.75;;;5.40;;
38089;SDS011;23904;52.322;10.232;2024-03-02T13:01:52;8.73;;;4.25;;
38089;SDS011;23904;52.322;10.232;2024-03-02T13:04:25;8.20;;;4.63;;
38089;SDS011;23904;52.322;10.232;2024-03-02T13:06:53;8.25;;;4.78;;
38089;SDS011;23904;52.322;10.232;2024-03-02T13:09:23;8.15;;;4.50;;
38089;SDS011;23904;52.322;10.232;2024-03-02T13:11:49;9.48;;;4.82;;
38089;SDS011;23904;52.322;10.232;2024-03-02T13:14:15;8.25;;;4.70;;
38089;SDS011;23904;52.322;10.232;2024-03-02T13:16:41;8.82;;;4.50;;
38089;SDS011;23904;52.322;10.232;2024-03-02T13:19:13;7.40;;;4.30;;
38089;SDS011;23904;52.322;10.232;2024-03-02T13:21:39;7.45;;;4.10;;
38089;SDS011;23904;52.322;10.232;2024-03-02T13:24:05;6.43;;;4.15;;
38089;SDS011;23904;52.322;10.232;2024-03-02T13:26:31;5.72;;;4.13;;
38089;SDS011;23904;52.322;10.232;2024-03-02T13:28:56;5.07;;;3.40;;
38089;SDS011;23904;52.322;10.232;2024-03-02T13:31:22;8.10;;;5.07;;
38089;SDS011;23904;52.322;10.232;2024-03-02T13:33:48;6.43;;;3.75;;
38089;SDS011;23904;52.322;10.232;2024-03-02T13:36:13;7.75;;;4.50;;
38089;SDS011;23904;52.322;10.232;2024-03-02T13:38:39;5.60;;;3.08;;
38089;SDS011;23904;52.322;10.232;2024-03-02T13:41:04;4.88;;;3.13;;
38089;SDS011;23904;52.322;10.232;2024-03-02T13:43:30;7.43;;;3.00;;
38089;SDS011;23904;52.322;10.232;2024-03-02T13:46:00;5.20;;;3.17;;
38089;SDS011;23904;52.322;10.232;2024-03-02T13:48:29;8.02;;;4.00;;
38089;SDS011;23904;52.322;10.232;2024-03-02T13:50:55;5.50;;;3.28;;
38089;SDS011;23904;52.322;10.232;2024-03-02T13:53:21;4.25;;;2.38;;
38089;SDS011;23904;52.322;10.232;2024-03-02T13:55:46;5.40;;;2.72;;
38089;SDS011;23904;52.322;10.232;2024-03-02T13:58:12;3.45;;;1.83;;
38089;SDS011;23904;52.322;10.232;2024-03-02T14:00:38;5.85;;;2.00;;
38089;SDS011;23904;52.322;10.232;2024-03-02T14:03:05;3.63;;;1.92;;
38089;SDS011;23904;52.322;10.232;2024-03-02T14:05:32;6.32;;;3.15;;
38089;SDS011;23904;52.322;10.232;2024-03-02T14:07:58;8.00;;;4.35;;
38089;SDS011;23904;52.322;10.232;2024-03-02T14:10:25;5.88;;;2.22;;
38089;SDS011;23904;52.322;10.232;2024-03-02T14:12:52;8.57;;;2.42;;
38089;SDS011;23904;52.322;10.232;2024-03-02T14:15:17;5.20;;;2.40;;
38089;SDS011;23904;52.322;10.232;2024-03-02T14:17:43;3.53;;;2.13;;
38089;SDS011;23904;52.322;10.232;2024-03-02T14:20:09;4.30;;;2.10;;
38089;SDS011;23904;52.322;10.232;2024-03-02T14:22:37;4.80;;;2.97;;
38089;SDS011;23904;52.322;10.232;2024-03-02T14:25:03;7.80;;;4.45;;
38089;SDS011;23904;52.322;10.232;2024-03-02T14:27:29;12.50;;;6.45;;
38089;SDS011;23904;52.322;10.232;2024-03-02T14:29:55;5.15;;;2.95;;
38089;SDS011;23904;52.322;10.232;2024-03-02T14:32:21;5.28;;;3.20;;